createdAt,value
2022-12-23T00:01:08.250Z,9.44
2022-12-23T00:06:12.911Z,9.44
2022-12-23T00:11:23.282Z,9.42
2022-12-23T00:16:28.036Z,9.35
2022-12-23T00:21:31.253Z,9.40
2022-12-23T00:26:34.396Z,9.39
2022-12-23T00:31:39.461Z,9.40
2022-12-23T00:36:43.090Z,9.29
2022-12-23T00:42:03.840Z,9.45
2022-12-23T00:47:30.676Z,9.43
2022-12-23T00:52:33.852Z,9.43
2022-12-23T00:57:36.879Z,9.43
2022-12-23T01:03:02.103Z,9.41
2022-12-23T01:08:06.037Z,9.41
2022-12-23T01:13:09.205Z,9.41
2022-12-23T01:18:14.010Z,9.45
2022-12-23T01:23:17.066Z,9.42
2022-12-23T01:28:20.178Z,9.36
2022-12-23T01:33:24.751Z,9.47
2022-12-23T01:38:27.776Z,9.42
2022-12-23T01:43:47.330Z,9.42
2022-12-23T01:48:54.295Z,9.40
2022-12-23T01:54:02.270Z,9.38
2022-12-23T01:59:10.524Z,9.38
2022-12-23T02:04:18.934Z,9.32
2022-12-23T02:09:25.412Z,9.36
2022-12-23T02:14:59.231Z,9.35
2022-12-23T02:20:32.045Z,9.36
2022-12-23T02:25:52.447Z,9.32
2022-12-23T02:31:09.634Z,9.31
2022-12-23T02:36:28.800Z,9.31
2022-12-23T02:41:39.685Z,9.23
2022-12-23T02:46:48.016Z,9.30
2022-12-23T02:51:55.612Z,9.25
2022-12-23T02:57:01.626Z,9.14
2022-12-23T03:02:06.323Z,9.27
2022-12-23T03:07:18.794Z,9.23
2022-12-23T03:12:37.338Z,9.22
2022-12-23T03:17:57.036Z,9.23
2022-12-23T03:23:07.101Z,9.26
2022-12-23T03:28:14.878Z,8.99
2022-12-23T03:33:23.483Z,9.26
2022-12-23T03:38:29.286Z,9.25
2022-12-23T03:43:37.872Z,9.26
2022-12-23T03:48:46.687Z,9.14
2022-12-23T03:53:55.755Z,9.27
2022-12-23T03:59:01.226Z,9.30
2022-12-23T04:04:15.130Z,9.31
2022-12-23T04:09:22.647Z,9.19
2022-12-23T04:14:25.758Z,9.16
2022-12-23T04:19:30.268Z,9.16
2022-12-23T04:24:33.227Z,9.17
2022-12-23T04:29:36.284Z,9.20
2022-12-23T04:34:40.714Z,9.18
2022-12-23T04:39:43.893Z,9.21
2022-12-23T04:44:47.129Z,9.19
2022-12-23T04:49:51.935Z,9.21
2022-12-23T04:54:55.096Z,9.23
2022-12-23T04:59:58.160Z,9.21
2022-12-23T05:05:02.571Z,9.28
2022-12-23T05:10:06.088Z,9.26
2022-12-23T05:15:09.912Z,9.25
2022-12-23T05:20:14.408Z,9.15
2022-12-23T05:25:17.479Z,9.17
2022-12-23T05:30:20.879Z,9.14
2022-12-23T05:35:27.896Z,9.20
2022-12-23T05:40:33.171Z,9.07
2022-12-23T05:45:37.824Z,9.07
2022-12-23T05:50:42.851Z,9.11
2022-12-23T05:55:45.991Z,9.15
2022-12-23T06:00:49.057Z,9.11
2022-12-23T06:05:53.571Z,9.07
2022-12-23T06:10:56.722Z,9.05
2022-12-23T06:16:01.556Z,9.06
2022-12-23T06:21:06.957Z,9.08
2022-12-23T06:26:10.258Z,9.01
2022-12-23T06:31:13.393Z,9.02
2022-12-23T06:36:17.915Z,9.05
2022-12-23T06:41:20.903Z,9.06
2022-12-23T06:46:24.220Z,9.01
2022-12-23T06:51:28.636Z,8.98
2022-12-23T06:56:31.728Z,8.99
2022-12-23T07:01:35.254Z,9.00
2022-12-23T07:06:40.398Z,8.95
2022-12-23T07:11:43.579Z,9.00
2022-12-23T07:16:46.816Z,9.07
2022-12-23T07:21:51.429Z,8.99
2022-12-23T07:26:55.966Z,9.10
2022-12-23T07:31:59.253Z,9.13
2022-12-23T07:37:03.809Z,9.13
2022-12-23T07:42:34.303Z,9.14
2022-12-23T07:47:30.219Z,9.16
2022-12-23T07:52:35.088Z,9.14
2022-12-23T07:57:38.622Z,9.17
2022-12-23T08:02:42.136Z,9.06
2022-12-23T08:07:50.010Z,9.15
2022-12-23T08:12:53.093Z,9.07
2022-12-23T08:17:56.600Z,9.15
2022-12-23T08:23:01.080Z,9.16
2022-12-23T08:28:04.111Z,9.20
2022-12-23T08:33:07.222Z,9.18
2022-12-23T08:43:49.855Z,9.19
2022-12-23T08:48:53.776Z,9.18
2022-12-23T08:54:01.040Z,9.19
2022-12-23T08:59:06.063Z,9.20
2022-12-23T09:04:09.567Z,9.12
2022-12-23T09:09:15.532Z,9.21
2022-12-23T09:14:20.020Z,9.11
2022-12-23T09:19:23.177Z,9.14
2022-12-23T09:24:26.499Z,9.18
2022-12-23T09:29:30.905Z,9.22
2022-12-23T09:34:34.184Z,9.26
2022-12-23T09:39:37.230Z,9.27
2022-12-23T09:45:07.629Z,9.34
2022-12-23T09:50:21.797Z,9.36
2022-12-23T09:55:31.870Z,9.37
2022-12-23T10:00:43.408Z,9.32
2022-12-23T10:05:57.007Z,9.39
2022-12-23T10:11:03.490Z,9.38
2022-12-23T10:16:13.646Z,9.41
2022-12-23T10:21:24.833Z,9.39
2022-12-23T10:26:33.508Z,9.31
2022-12-23T10:31:50.000Z,9.33
2022-12-23T10:37:02.095Z,9.33
2022-12-23T10:42:19.551Z,9.37
2022-12-23T10:47:37.591Z,9.30
2022-12-23T10:52:45.367Z,9.36
2022-12-23T10:57:49.098Z,9.40
2022-12-23T11:03:07.925Z,9.37
2022-12-23T11:08:11.937Z,9.32
2022-12-23T11:13:26.135Z,9.38
2022-12-23T11:18:30.674Z,9.29
2022-12-23T11:23:37.012Z,9.33
2022-12-23T11:28:48.724Z,9.28
2022-12-23T11:33:59.780Z,9.40
2022-12-23T11:39:07.784Z,9.42
2022-12-23T11:44:17.794Z,9.45
2022-12-23T11:49:24.556Z,9.44
2022-12-23T11:54:28.082Z,9.48
2022-12-23T11:59:35.364Z,9.36
2022-12-23T12:04:41.934Z,9.38
2022-12-23T12:09:45.960Z,9.29
2022-12-23T12:14:52.242Z,9.22
2022-12-23T12:20:04.898Z,9.10
2022-12-23T12:25:18.248Z,9.09
2022-12-23T12:30:23.193Z,9.06
2022-12-23T12:35:39.198Z,9.07
2022-12-23T12:40:46.631Z,9.05
2022-12-23T12:45:54.213Z,8.93
2022-12-23T12:51:05.628Z,9.06
2022-12-23T12:56:20.447Z,9.01
2022-12-23T13:01:39.010Z,9.04
2022-12-23T13:06:52.433Z,8.97
2022-12-23T13:12:03.113Z,9.16
2022-12-23T13:17:13.802Z,9.26
2022-12-23T13:22:21.715Z,9.73
2022-12-23T13:27:32.832Z,9.62
2022-12-23T13:33:05.356Z,9.61
2022-12-23T13:38:22.984Z,9.55
2022-12-23T13:43:39.769Z,9.59
2022-12-23T13:48:52.955Z,9.61
2022-12-23T13:54:04.974Z,9.60
2022-12-23T13:59:11.930Z,9.48
2022-12-23T14:04:37.094Z,9.50
2022-12-23T14:09:42.157Z,9.48
2022-12-23T14:15:00.293Z,9.38
2022-12-23T14:20:18.911Z,9.50
2022-12-23T14:25:38.461Z,9.54
2022-12-23T14:30:45.842Z,9.53
2022-12-23T14:35:57.927Z,9.54
2022-12-23T14:41:23.897Z,9.44
2022-12-23T14:46:57.773Z,9.40
2022-12-23T14:52:35.879Z,9.36
2022-12-23T14:57:44.054Z,9.34
2022-12-23T15:02:47.349Z,9.32
2022-12-23T15:07:56.112Z,9.25
2022-12-23T15:13:03.163Z,9.20
2022-12-23T15:18:12.449Z,9.29
2022-12-23T15:23:20.702Z,9.16
2022-12-23T15:28:35.803Z,9.24
2022-12-23T15:39:04.501Z,9.33
2022-12-23T15:44:16.773Z,9.31
2022-12-23T15:49:21.838Z,9.30
2022-12-23T15:54:31.094Z,9.40
2022-12-23T15:59:38.850Z,9.36
2022-12-23T16:04:42.270Z,9.35
2022-12-23T16:09:45.372Z,9.33
2022-12-23T16:14:57.992Z,9.27
2022-12-23T16:20:23.137Z,9.26
2022-12-23T16:25:28.551Z,9.38
2022-12-23T16:30:34.971Z,9.46
2022-12-23T16:35:39.776Z,9.53
2022-12-23T16:40:43.643Z,9.55
2022-12-23T16:45:52.823Z,9.67
2022-12-23T16:50:56.526Z,9.72
2022-12-23T16:56:01.147Z,9.77
2022-12-23T17:01:06.228Z,9.77
2022-12-23T17:06:15.998Z,9.81
2022-12-23T17:11:23.024Z,9.83
2022-12-23T17:16:27.520Z,9.84
2022-12-23T17:21:33.804Z,9.84
2022-12-23T17:26:37.354Z,9.84
2022-12-23T17:31:43.343Z,9.73
2022-12-23T17:36:50.381Z,9.78
2022-12-23T17:41:56.839Z,9.76
2022-12-23T17:47:01.602Z,9.71
2022-12-23T17:52:09.261Z,9.65
2022-12-23T17:57:21.465Z,9.33
2022-12-23T18:02:29.647Z,9.59
2022-12-23T18:07:32.882Z,9.60
2022-12-23T18:12:38.705Z,9.67
2022-12-23T18:17:43.348Z,9.60
2022-12-23T18:22:47.491Z,9.67
2022-12-23T18:27:51.251Z,9.68
2022-12-23T18:32:56.061Z,9.38
2022-12-23T18:38:03.063Z,9.35
2022-12-23T18:43:07.037Z,9.49
2022-12-23T18:48:12.849Z,9.69
2022-12-23T18:53:23.806Z,9.57
2022-12-23T18:58:30.437Z,9.66
2022-12-23T19:03:36.449Z,9.70
2022-12-23T19:08:39.909Z,9.69
2022-12-23T19:13:43.070Z,9.71
2022-12-23T19:18:48.853Z,9.82
2022-12-23T19:23:51.911Z,9.82
2022-12-23T19:28:58.403Z,9.81
2022-12-23T19:34:12.868Z,9.81
2022-12-23T19:39:21.977Z,9.80
2022-12-23T19:44:25.565Z,9.81
2022-12-23T19:49:30.619Z,9.50
2022-12-23T19:54:34.463Z,9.63
2022-12-23T19:59:42.692Z,9.42
2022-12-23T20:04:48.449Z,9.29
2022-12-23T20:09:53.893Z,9.39
2022-12-23T20:14:58.960Z,9.21
2022-12-23T20:20:07.124Z,9.64
2022-12-23T20:25:13.675Z,9.60
2022-12-23T20:30:20.197Z,9.32
2022-12-23T20:35:28.396Z,9.25
2022-12-23T20:40:31.880Z,9.27
2022-12-23T20:45:35.585Z,9.33
2022-12-23T20:50:42.159Z,9.58
2022-12-23T20:55:48.219Z,9.15
2022-12-23T21:00:52.263Z,9.07
2022-12-23T21:06:01.805Z,9.16
2022-12-23T21:11:06.373Z,8.98
2022-12-23T21:16:12.635Z,8.86
2022-12-23T21:21:20.707Z,9.07
2022-12-23T21:26:29.206Z,9.05
2022-12-23T21:31:37.200Z,9.19
2022-12-23T21:36:45.896Z,8.94
2022-12-23T21:41:51.155Z,8.90
2022-12-23T21:46:54.934Z,8.89
2022-12-23T21:52:01.730Z,8.85
2022-12-23T21:57:05.541Z,9.03
2022-12-23T22:02:09.278Z,8.95
2022-12-23T22:07:23.000Z,8.84
2022-12-23T22:12:31.773Z,9.15
2022-12-23T22:17:35.659Z,9.21
2022-12-23T22:22:45.622Z,8.72
2022-12-23T22:27:51.957Z,8.97
2022-12-23T22:33:01.500Z,8.92
2022-12-23T22:38:10.496Z,8.74
2022-12-23T22:43:14.004Z,8.74
2022-12-23T22:48:19.643Z,8.92
2022-12-23T22:53:29.961Z,8.57
2022-12-23T22:58:36.941Z,8.27
2022-12-23T23:03:40.387Z,8.23
2022-12-23T23:09:00.173Z,8.60
2022-12-23T23:14:19.559Z,8.07
2022-12-23T23:19:24.073Z,8.05
2022-12-23T23:24:33.833Z,8.48
2022-12-23T23:29:37.539Z,8.04
2022-12-23T23:34:45.868Z,8.43
2022-12-23T23:39:54.094Z,7.93
2022-12-23T23:44:58.987Z,8.05
2022-12-23T23:50:06.346Z,8.19
2022-12-23T23:55:11.848Z,8.07
